Terminal Aerodrome Forecast
Issued by NWS

Home | Current Version | Previous Version | Graphics & Text | Print | Product List | Glossary On
Versions: 1 2 3 4 5 6 7 8 9 10 11 12 13 14 15 16 17 18
303
FTUS43 KGRB 242327
TAFCWA
TAF
KCWA 242327Z 2500/2524 15012G18KT P6SM BKN150
     FM250200 14010KT P6SM BKN120 WS012/17040KT
     FM251000 14008KT P6SM BKN120
     FM251800 16010G16KT P6SM OVC070
     FM252100 13009KT 6SM -SHRA OVC035
      AMD LTD TO CLD VIS AND WIND 2503/2511=

USA.gov is the U.S. government's official web portal to all federal, state and local government web resources and services.